Station History

Weather Underground - logo

Station Historical Data
Daily Summary for January 24, 2018 Units:  English    Metric   Both
« Previous Day
Next Day »
Daily Weekly Monthly Yearly Custom
  High: Low: Average:
Temperature: 66.6 °F 34.2 °F 50.3 °F
Dew Point: 48.0 °F 32.9 °F 41.5 °F
Humidity: 97 % 41 % 75 %
Wind Speed: 6.9 mph 0.0 mph 0.4 mph
Wind Gust: 6.9 mph - -
Wind:- - WSW
Pressure: 30.22 in 30.01 in -
Precipitation: 0.01 in    
Historical Graphs
 
 
Tabular Data for January 24, 2018
Time Temperature Dew Point Pressure Wind Wind Speed Wind Gust Humidity Rainfall Rate (Hourly)
00:04 39.3 °F 37.7 °F 30.22 in Calm     94 % 0.00 in
00:09 39.3 °F 37.7 °F 30.22 in Calm     94 % 0.00 in
00:14 39.4 °F 37.8 °F 30.22 in Calm     94 % 0.00 in
00:19 39.0 °F 37.1 °F 30.21 in Calm     93 % 0.00 in
00:24 39.0 °F 37.4 °F 30.21 in Calm     94 % 0.00 in
00:29 38.9 °F 37.3 °F 30.21 in Calm     94 % 0.00 in
00:34 39.0 °F 37.4 °F 30.21 in Calm     94 % 0.00 in
00:39 39.1 °F 37.5 °F 30.21 in Calm     94 % 0.00 in
00:44 39.2 °F 37.6 °F 30.20 in Calm     94 % 0.00 in
00:50 38.7 °F 37.1 °F 30.20 in Calm     94 % 0.00 in
00:55 38.4 °F 36.6 °F 30.20 in Calm     93 % 0.00 in
01:05 37.9 °F 36.3 °F 30.20 in Calm     94 % 0.00 in
01:10 37.5 °F 35.7 °F 30.20 in Calm     93 % 0.00 in
01:15 37.2 °F 35.4 °F 30.20 in Calm     93 % 0.00 in
01:20 37.1 °F 35.3 °F 30.20 in Calm     93 % 0.00 in
01:25 37.0 °F 35.2 °F 30.20 in Calm     93 % 0.00 in
01:30 37.0 °F 35.4 °F 30.20 in Calm     94 % 0.00 in
01:35 36.6 °F 34.8 °F 30.20 in Calm     93 % 0.00 in
01:40 36.5 °F 34.7 °F 30.20 in Calm     93 % 0.00 in
01:45 36.5 °F 34.9 °F 30.20 in Calm     94 % 0.00 in
01:50 36.7 °F 35.1 °F 30.20 in Calm     94 % 0.00 in
01:55 36.8 °F 35.2 °F 30.20 in Calm     94 % 0.00 in
02:00 36.9 °F 35.3 °F 30.20 in Calm     94 % 0.00 in
02:05 37.1 °F 35.5 °F 30.20 in Calm   0.4 mph 94 % 0.00 in
02:10 37.3 °F 36.0 °F 30.20 in Calm     95 % 0.00 in
02:15 37.5 °F 36.2 °F 30.20 in Calm     95 % 0.00 in
02:20 37.6 °F 36.3 °F 30.19 in Calm     95 % 0.00 in
02:25 37.9 °F 36.6 °F 30.19 in Calm     95 % 0.00 in
02:30 38.1 °F 36.8 °F 30.19 in Calm     95 % 0.00 in
02:36 38.2 °F 36.9 °F 30.19 in Calm     95 % 0.00 in
02:41 38.2 °F 36.9 °F 30.19 in Calm     95 % 0.00 in
02:46 38.2 °F 36.9 °F 30.19 in Calm     95 % 0.00 in
02:51 38.0 °F 36.7 °F 30.18 in Calm     95 % 0.00 in
02:56 37.9 °F 36.6 °F 30.18 in Calm     95 % 0.00 in
03:01 37.8 °F 36.5 °F 30.18 in Calm     95 % 0.00 in
03:06 37.6 °F 36.3 °F 30.18 in Calm     95 % 0.00 in
03:11 37.1 °F 35.8 °F 30.18 in Calm     95 % 0.00 in
03:16 36.8 °F 35.2 °F 30.18 in Calm     94 % 0.00 in
03:21 37.0 °F 35.7 °F 30.18 in Calm     95 % 0.00 in
03:26 37.3 °F 36.0 °F 30.18 in Calm     95 % 0.00 in
03:31 37.3 °F 36.0 °F 30.18 in Calm     95 % 0.00 in
03:36 37.1 °F 35.8 °F 30.18 in Calm     95 % 0.00 in
03:41 36.6 °F 35.3 °F 30.18 in Calm     95 % 0.00 in
03:46 36.2 °F 34.6 °F 30.18 in Calm     94 % 0.00 in
03:51 36.4 °F 35.1 °F 30.18 in Calm     95 % 0.00 in
03:56 36.8 °F 35.5 °F 30.18 in Calm     95 % 0.00 in
04:01 37.1 °F 35.8 °F 30.18 in Calm     95 % 0.00 in
04:06 37.1 °F 35.8 °F 30.18 in Calm     95 % 0.00 in
04:11 37.1 °F 35.8 °F 30.18 in Calm     95 % 0.00 in
04:16 37.2 °F 35.9 °F 30.18 in Calm     95 % 0.00 in
04:21 37.2 °F 35.9 °F 30.18 in Calm     95 % 0.00 in
04:26 37.1 °F 35.8 °F 30.18 in Calm     95 % 0.00 in
04:31 37.1 °F 35.8 °F 30.18 in Calm     95 % 0.00 in
04:36 37.0 °F 35.7 °F 30.18 in Calm     95 % 0.00 in
04:41 37.0 °F 35.7 °F 30.18 in Calm     95 % 0.00 in
04:46 37.2 °F 36.2 °F 30.18 in Calm     96 % 0.00 in
04:51 37.3 °F 36.3 °F 30.18 in Calm     96 % 0.00 in
04:56 37.1 °F 36.1 °F 30.18 in Calm     96 % 0.00 in
05:01 37.0 °F 35.7 °F 30.18 in Calm     95 % 0.00 in
05:12 36.7 °F 35.4 °F 30.18 in Calm     95 % 0.00 in
05:17 36.3 °F 35.0 °F 30.18 in Calm     95 % 0.00 in
05:27 35.6 °F 34.3 °F 30.18 in Calm     95 % 0.00 in
05:32 35.4 °F 34.1 °F 30.18 in Calm     95 % 0.00 in
05:37 35.1 °F 33.8 °F 30.18 in Calm     95 % 0.00 in
05:42 34.8 °F 33.5 °F 30.18 in Calm     95 % 0.00 in
05:47 34.5 °F 33.2 °F 30.18 in Calm     95 % 0.00 in
05:52 34.3 °F 33.0 °F 30.18 in Calm     95 % 0.00 in
05:57 34.2 °F 32.9 °F 30.18 in Calm     95 % 0.00 in
06:02 34.4 °F 33.1 °F 30.18 in Calm     95 % 0.00 in
06:12 34.7 °F 33.4 °F 30.18 in Calm     95 % 0.00 in
06:17 34.8 °F 33.5 °F 30.17 in Calm     95 % 0.00 in
06:22 34.9 °F 33.9 °F 30.17 in Calm     96 % 0.00 in
06:27 34.9 °F 33.9 °F 30.17 in Calm     96 % 0.00 in
06:32 34.8 °F 33.5 °F 30.17 in Calm     95 % 0.00 in
06:37 34.7 °F 33.4 °F 30.17 in Calm     95 % 0.00 in
06:42 34.7 °F 33.7 °F 30.18 in Calm     96 % 0.00 in
06:47 34.5 °F 33.2 °F 30.17 in Calm     95 % 0.00 in
06:52 34.4 °F 33.1 °F 30.18 in Calm     95 % 0.00 in
06:57 34.3 °F 33.0 °F 30.18 in Calm     95 % 0.00 in
07:02 34.3 °F 33.0 °F 30.17 in Calm     95 % 0.00 in
07:08 34.4 °F 33.4 °F 30.17 in Calm     96 % 0.00 in
07:13 34.4 °F 33.4 °F 30.17 in Calm     96 % 0.00 in
07:18 34.4 °F 33.4 °F 30.17 in Calm     96 % 0.00 in
07:33 34.5 °F 33.5 °F 30.17 in Calm     96 % 0.00 in
07:38 34.5 °F 33.5 °F 30.17 in Calm     96 % 0.00 in
07:43 34.8 °F 33.8 °F 30.17 in Calm     96 % 0.00 in
07:48 35.3 °F 34.3 °F 30.17 in Calm     96 % 0.00 in
07:53 35.6 °F 34.6 °F 30.18 in Calm     96 % 0.00 in
07:58 36.2 °F 35.2 °F 30.17 in Calm     96 % 0.00 in
08:03 37.1 °F 36.1 °F 30.17 in Calm     96 % 0.00 in
08:08 37.9 °F 36.9 °F 30.18 in Calm     96 % 0.01 in
08:13 38.6 °F 37.6 °F 30.18 in Calm     96 % 0.01 in
08:23 39.8 °F 38.8 °F 30.18 in Calm     96 % 0.01 in
08:28 40.5 °F 39.7 °F 30.18 in Calm     97 % 0.01 in
08:33 41.2 °F 40.4 °F 30.18 in Calm     97 % 0.01 in
08:38 41.9 °F 41.1 °F 30.18 in Calm     97 % 0.01 in
08:48 43.3 °F 42.5 °F 30.18 in Calm     97 % 0.01 in
08:58 45.8 °F 45.0 °F 30.18 in Calm     97 % 0.01 in
09:03 47.5 °F 46.4 °F 30.18 in Calm     96 % 0.01 in
09:08 47.6 °F 44.8 °F 30.18 in Calm     90 % 0.00 in
09:13 47.9 °F 44.8 °F 30.18 in Calm     89 % 0.00 in
09:18 48.8 °F 45.4 °F 30.18 in Calm     88 % 0.00 in
09:23 49.9 °F 45.6 °F 30.17 in ESE 1.2 mph 1.2 mph 85 % 0.00 in
09:33 51.4 °F 46.4 °F 30.17 in Calm     83 % 0.00 in
09:43 52.7 °F 46.7 °F 30.17 in SSE 1.2 mph 1.2 mph 80 % 0.00 in
09:48 53.1 °F 46.8 °F 30.17 in Calm     79 % 0.00 in
09:53 52.7 °F 45.7 °F 30.17 in Calm   0.1 mph 77 % 0.00 in
09:58 52.5 °F 46.2 °F 30.17 in West 1.2 mph 1.2 mph 79 % 0.00 in
10:03 52.6 °F 45.9 °F 30.17 in WNW 1.2 mph   78 % 0.00 in
10:08 53.0 °F 46.3 °F 30.17 in North 1.2 mph 1.2 mph 78 % 0.00 in
10:13 53.0 °F 46.0 °F 30.17 in WNW 1.2 mph 1.2 mph 77 % 0.00 in
10:19 53.2 °F 46.2 °F 30.17 in WSW 1.0 mph 1.0 mph 77 % 0.00 in
10:24 53.9 °F 46.9 °F 30.17 in Calm     77 % 0.00 in
10:29 54.4 °F 46.3 °F 30.17 in Calm     74 % 0.00 in
10:34 54.8 °F 45.9 °F 30.17 in Calm     72 % 0.00 in
10:39 55.2 °F 46.3 °F 30.16 in NW 1.2 mph 1.2 mph 72 % 0.00 in
10:44 55.6 °F 46.0 °F 30.16 in Calm     70 % 0.00 in
10:49 56.4 °F 47.9 °F 30.16 in SE 1.0 mph   73 % 0.00 in
10:59 58.2 °F 47.3 °F 30.15 in SE 1.2 mph 1.2 mph 67 % 0.00 in
11:04 59.1 °F 46.1 °F 30.15 in ESE 1.2 mph 1.2 mph 62 % 0.00 in
11:09 59.6 °F 47.0 °F 30.15 in SE 1.2 mph 1.2 mph 63 % 0.00 in
11:14 60.1 °F 47.0 °F 30.14 in Calm     62 % 0.00 in
11:19 60.7 °F 47.6 °F 30.14 in Calm     62 % 0.00 in
11:24 60.8 °F 46.4 °F 30.14 in East 1.2 mph 1.2 mph 59 % 0.00 in
11:29 60.9 °F 47.4 °F 30.13 in NNE 1.2 mph 1.2 mph 61 % 0.00 in
11:39 62.0 °F 47.5 °F 30.13 in SSE 1.2 mph 1.2 mph 59 % 0.00 in
11:44 61.9 °F 47.4 °F 30.12 in SE 1.2 mph   59 % 0.00 in
11:49 62.1 °F 48.0 °F 30.12 in SE 1.2 mph   60 % 0.00 in
11:54 62.4 °F 47.9 °F 30.12 in SE 1.2 mph 1.2 mph 59 % 0.00 in
11:59 62.5 °F 46.6 °F 30.11 in NW 1.0 mph 1.0 mph 56 % 0.00 in
12:10 62.4 °F 45.0 °F 30.11 in Calm     53 % 0.00 in
12:20 63.0 °F 45.6 °F 30.10 in SSW 1.2 mph 1.2 mph 53 % 0.00 in
12:25 63.3 °F 43.3 °F 30.10 in Calm     48 % 0.00 in
12:30 63.6 °F 43.5 °F 30.10 in NNW 1.2 mph 1.2 mph 48 % 0.00 in
12:35 64.0 °F 43.9 °F 30.10 in NW 2.0 mph 2.0 mph 48 % 0.00 in
12:40 64.4 °F 43.7 °F 30.10 in NW 3.5 mph 3.5 mph 47 % 0.00 in
12:45 64.5 °F 43.8 °F 30.10 in NNE 3.0 mph 3.0 mph 47 % 0.00 in
12:50 64.6 °F 43.9 °F 30.09 in West 1.2 mph 1.2 mph 47 % 0.00 in
12:55 64.9 °F 43.0 °F 30.09 in WNW 1.2 mph 1.2 mph 45 % 0.00 in
13:00 64.9 °F 43.6 °F 30.09 in Calm     46 % 0.00 in
13:05 64.9 °F 42.5 °F 30.08 in Calm     44 % 0.00 in
13:10 64.9 °F 42.5 °F 30.08 in Calm     44 % 0.00 in
13:15 64.8 °F 41.8 °F 30.08 in Calm     43 % 0.00 in
13:20 64.9 °F 43.0 °F 30.07 in Calm     45 % 0.00 in
13:25 65.0 °F 42.5 °F 30.07 in Calm     44 % 0.00 in
13:30 65.0 °F 41.9 °F 30.07 in Calm     43 % 0.00 in
13:35 65.2 °F 42.1 °F 30.06 in Calm     43 % 0.00 in
13:40 65.5 °F 43.6 °F 30.06 in SE 1.2 mph   45 % 0.00 in
13:45 65.7 °F 43.8 °F 30.06 in Calm     45 % 0.00 in
13:50 65.9 °F 43.4 °F 30.06 in Calm     44 % 0.00 in
13:55 66.1 °F 43.5 °F 30.06 in SE 1.2 mph   44 % 0.00 in
14:00 66.2 °F 43.0 °F 30.05 in Calm     43 % 0.00 in
14:05 66.0 °F 42.2 °F 30.05 in Calm     42 % 0.00 in
14:10 66.0 °F 41.6 °F 30.05 in NW 1.2 mph 1.2 mph 41 % 0.00 in
14:15 66.0 °F 42.2 °F 30.05 in Calm     42 % 0.00 in
14:20 66.2 °F 42.4 °F 30.05 in NW 1.2 mph   42 % 0.00 in
14:25 66.4 °F 42.0 °F 30.05 in NNW 1.0 mph 1.0 mph 41 % 0.00 in
14:30 66.4 °F 42.6 °F 30.04 in Calm     42 % 0.00 in
14:35 66.5 °F 43.3 °F 30.04 in WNW 1.2 mph 1.2 mph 43 % 0.00 in
14:40 66.5 °F 43.3 °F 30.04 in Calm     43 % 0.00 in
14:45 66.5 °F 43.9 °F 30.04 in Calm     44 % 0.00 in
14:50 66.6 °F 44.6 °F 30.04 in Calm   0.1 mph 45 % 0.00 in
14:55 66.6 °F 45.2 °F 30.04 in NW 1.0 mph 1.0 mph 46 % 0.00 in
15:00 66.5 °F 44.5 °F 30.04 in Calm     45 % 0.00 in
15:05 66.4 °F 45.0 °F 30.04 in Calm     46 % 0.00 in
15:10 66.3 °F 44.9 °F 30.03 in Calm     46 % 0.00 in
15:15 66.3 °F 44.9 °F 30.03 in Calm     46 % 0.00 in
15:21 66.2 °F 44.2 °F 30.03 in Calm     45 % 0.00 in
15:26 66.1 °F 44.1 °F 30.03 in Calm     45 % 0.00 in
15:31 66.0 °F 44.0 °F 30.03 in Calm     45 % 0.00 in
15:36 66.0 °F 43.5 °F 30.03 in Calm     44 % 0.00 in
15:41 66.0 °F 44.6 °F 30.03 in Calm     46 % 0.00 in
15:46 65.8 °F 43.3 °F 30.03 in Calm     44 % 0.00 in
15:51 65.7 °F 43.8 °F 30.03 in Calm     45 % 0.00 in
15:56 65.5 °F 43.6 °F 30.03 in Calm     45 % 0.00 in
16:01 65.3 °F 44.0 °F 30.03 in Calm     46 % 0.00 in
16:06 65.1 °F 44.4 °F 30.03 in Calm     47 % 0.00 in
16:10 64.9 °F 44.7 °F 30.03 in Calm     48 % 0.00 in
16:15 64.5 °F 44.4 °F 30.03 in Calm     48 % 0.00 in
16:20 64.3 °F 44.7 °F 30.03 in Calm     49 % 0.00 in
16:25 64.0 °F 45.0 °F 30.03 in Calm     50 % 0.00 in
16:31 63.7 °F 44.7 °F 30.03 in Calm     50 % 0.00 in
16:36 63.4 °F 44.9 °F 30.03 in Calm     51 % 0.00 in
16:41 63.0 °F 45.1 °F 30.03 in Calm     52 % 0.00 in
16:46 62.8 °F 45.4 °F 30.03 in Calm     53 % 0.00 in
16:51 62.5 °F 45.6 °F 30.03 in Calm     54 % 0.00 in
16:56 62.0 °F 45.2 °F 30.03 in Calm     54 % 0.00 in
17:01 61.7 °F 46.3 °F 30.03 in Calm     57 % 0.00 in
17:06 61.3 °F 45.9 °F 30.03 in Calm     57 % 0.00 in
17:11 61.0 °F 45.7 °F 30.03 in Calm     57 % 0.00 in
17:16 60.9 °F 46.0 °F 30.03 in Calm     58 % 0.00 in
17:21 60.6 °F 45.7 °F 30.03 in Calm     58 % 0.00 in
17:26 60.3 °F 45.5 °F 30.03 in Calm     58 % 0.00 in
17:31 60.3 °F 45.9 °F 30.03 in Calm     59 % 0.00 in
17:36 60.0 °F 46.9 °F 30.03 in Calm     62 % 0.00 in
17:41 58.9 °F 46.3 °F 30.03 in Calm     63 % 0.00 in
17:46 59.0 °F 46.0 °F 30.03 in Calm     62 % 0.00 in
17:51 59.1 °F 46.1 °F 30.03 in Calm     62 % 0.00 in
17:56 58.6 °F 46.0 °F 30.03 in Calm     63 % 0.00 in
18:01 58.2 °F 46.5 °F 30.03 in Calm     65 % 0.00 in
18:06 57.4 °F 46.1 °F 30.03 in Calm     66 % 0.00 in
18:11 57.4 °F 46.1 °F 30.03 in Calm     66 % 0.00 in
18:16 57.5 °F 45.8 °F 30.03 in Calm     65 % 0.00 in
18:21 57.5 °F 45.8 °F 30.03 in Calm     65 % 0.00 in
18:26 57.6 °F 45.9 °F 30.03 in Calm     65 % 0.00 in
18:31 58.0 °F 46.3 °F 30.03 in Calm     65 % 0.00 in
18:36 58.1 °F 46.4 °F 30.03 in Calm     65 % 0.00 in
18:40 57.9 °F 45.8 °F 30.03 in Calm     64 % 0.00 in
18:45 57.9 °F 45.8 °F 30.03 in Calm     64 % 0.00 in
18:50 57.7 °F 45.6 °F 30.03 in Calm     64 % 0.00 in
18:55 57.6 °F 44.7 °F 30.03 in Calm     62 % 0.00 in
19:00 57.6 °F 44.7 °F 30.03 in Calm     62 % 0.00 in
19:05 57.6 °F 44.2 °F 30.02 in Calm     61 % 0.00 in
19:06 57.6 °F 44.7 °F 30.02 in Calm     62 % 0.00 in
19:11 57.6 °F 44.2 °F 30.02 in Calm     61 % 0.00 in
19:16 57.4 °F 44.5 °F 30.02 in Calm     62 % 0.00 in
19:21 57.0 °F 44.5 °F 30.02 in Calm     63 % 0.00 in
19:26 56.7 °F 44.2 °F 30.02 in Calm     63 % 0.00 in
19:31 56.4 °F 44.0 °F 30.02 in Calm     63 % 0.00 in
19:36 56.1 °F 44.1 °F 30.02 in Calm     64 % 0.00 in
19:41 55.7 °F 44.1 °F 30.02 in Calm     65 % 0.00 in
19:46 55.3 °F 43.7 °F 30.02 in Calm     65 % 0.00 in
19:51 54.7 °F 44.7 °F 30.02 in Calm     69 % 0.00 in
19:56 53.7 °F 44.5 °F 30.02 in Calm     71 % 0.00 in
20:01 53.0 °F 44.6 °F 30.02 in Calm     73 % 0.00 in
20:06 52.4 °F 44.4 °F 30.01 in Calm     74 % 0.00 in
20:11 51.9 °F 44.2 °F 30.01 in Calm     75 % 0.00 in
20:16 51.4 °F 44.1 °F 30.01 in Calm     76 % 0.00 in
20:21 51.0 °F 44.0 °F 30.02 in Calm     77 % 0.00 in
20:26 50.9 °F 44.3 °F 30.02 in Calm     78 % 0.00 in
20:31 50.7 °F 44.1 °F 30.02 in Calm     78 % 0.00 in
20:36 50.0 °F 43.7 °F 30.02 in Calm     79 % 0.00 in
20:41 49.4 °F 43.5 °F 30.02 in Calm     80 % 0.00 in
20:46 49.2 °F 43.3 °F 30.02 in Calm     80 % 0.00 in
20:51 49.2 °F 43.6 °F 30.03 in Calm     81 % 0.00 in
20:56 49.2 °F 43.6 °F 30.03 in Calm     81 % 0.00 in
21:01 49.3 °F 43.4 °F 30.03 in Calm     80 % 0.00 in
21:06 49.3 °F 43.4 °F 30.03 in Calm     80 % 0.00 in
21:11 49.4 °F 43.5 °F 30.03 in Calm     80 % 0.00 in
21:16 49.7 °F 43.8 °F 30.03 in Calm     80 % 0.00 in
21:21 49.4 °F 43.5 °F 30.02 in Calm     80 % 0.00 in
21:26 49.1 °F 43.2 °F 30.02 in Calm     80 % 0.00 in
21:31 49.3 °F 43.1 °F 30.03 in Calm     79 % 0.00 in
21:36 49.0 °F 43.1 °F 30.03 in Calm     80 % 0.00 in
21:41 49.0 °F 42.4 °F 30.03 in WNW 2.3 mph   78 % 0.00 in
21:46 49.4 °F 42.8 °F 30.03 in West 1.2 mph 1.2 mph 78 % 0.00 in
21:51 49.3 °F 42.7 °F 30.04 in West 1.2 mph 1.2 mph 78 % 0.00 in
21:56 49.6 °F 42.7 °F 30.04 in Calm     77 % 0.00 in
22:01 49.6 °F 42.3 °F 30.04 in West 1.2 mph   76 % 0.00 in
22:06 49.6 °F 42.3 °F 30.05 in Calm     76 % 0.00 in
22:11 50.1 °F 43.2 °F 30.05 in NNW 3.5 mph 3.5 mph 77 % 0.00 in
22:16 50.9 °F 43.9 °F 30.05 in NW 3.5 mph 3.5 mph 77 % 0.00 in
22:21 51.6 °F 45.0 °F 30.05 in West 3.5 mph 3.5 mph 78 % 0.00 in
22:26 51.7 °F 45.1 °F 30.05 in NNW 3.0 mph 3.0 mph 78 % 0.00 in
22:31 51.8 °F 45.2 °F 30.05 in NW 2.3 mph 2.3 mph 78 % 0.00 in
22:36 51.7 °F 45.1 °F 30.05 in NNW 2.3 mph 2.3 mph 78 % 0.00 in
22:41 51.7 °F 45.4 °F 30.05 in NW 3.5 mph 3.5 mph 79 % 0.00 in
22:46 51.6 °F 45.3 °F 30.05 in WNW 2.0 mph 2.0 mph 79 % 0.00 in
22:51 51.5 °F 45.2 °F 30.05 in WNW 3.5 mph 3.5 mph 79 % 0.00 in
22:56 51.4 °F 45.4 °F 30.05 in NW 2.3 mph 2.3 mph 80 % 0.00 in
23:01 51.2 °F 45.2 °F 30.05 in NW 1.0 mph 1.0 mph 80 % 0.00 in
23:06 51.0 °F 45.4 °F 30.05 in NW 1.2 mph   81 % 0.00 in
23:12 50.8 °F 45.2 °F 30.05 in West 1.2 mph 1.2 mph 81 % 0.00 in
23:17 50.6 °F 45.3 °F 30.05 in NW 1.2 mph 1.2 mph 82 % 0.00 in
23:22 50.3 °F 45.3 °F 30.05 in NW 4.6 mph 4.6 mph 83 % 0.00 in
23:27 50.3 °F 45.6 °F 30.05 in NW 4.6 mph 4.6 mph 84 % 0.00 in
23:32 50.5 °F 45.8 °F 30.04 in NW 6.9 mph 6.9 mph 84 % 0.00 in
23:37 50.8 °F 45.8 °F 30.04 in SW 4.6 mph 4.6 mph 83 % 0.00 in
23:42 50.8 °F 45.5 °F 30.04 in NW 3.5 mph 3.5 mph 82 % 0.00 in
23:47 50.9 °F 45.6 °F 30.04 in NNW 3.5 mph 3.5 mph 82 % 0.00 in
23:52 51.0 °F 45.7 °F 30.04 in WNW 4.6 mph 4.6 mph 82 % 0.00 in
23:57 51.1 °F 45.5 °F 30.04 in NW 3.5 mph 3.5 mph 81 % 0.00 in
Park Place, Exeter, Tulare County, California, USA
Compliments of Weather Underground - 2.75 mb